Terminal Aerodrome Forecast
Issued by NWS

Home | Current Version | Previous Version | Text Only | Print | Product List | Glossary On
Versions: 1 2 3 4 5 6 7 8 9 10 11 12 13 14 15 16 17 18 19 20 21 22 23 24 25 26 27 28
000
FTUS43 KDDC 170526
TAFHYS
TAF
KHYS 170526Z 1706/1806 03010KT P6SM BKN150
     FM170800 03013KT P6SM VCTS BKN070CB
     FM171600 05010KT P6SM BKN025
     FM172100 08011KT P6SM BKN060=

USA.gov is the U.S. government's official web portal to all federal, state and local government web resources and services.